Hovedside
METAR-TAF:

METAR-TAF

Lufthavner :

Svolvær, Norge

Svolvær lufthavn

breddegrad: 68-15N, lengdegrad: 014-40E, høyde over havet: 0 m

Gjeldene værobservasjon

Denne rapporten ble laget for 50 minutter siden, klokken 03:50 UTC
Vind 8 kt fra Nord
Temperatur 0°C
Luftfuktighet 74%
Trykk 1009 hPa
Sikt 10 km eller mer
ingen skyer under 1500 m og ingen bygeskyer

METAR: ENSH 250350Z 36008KT CAVOK 00/M04 Q1009

Tid: 06:40 (04:40 UTC)

Varsel

Denne rapporten ble laget for 2 timer og 40 minutter siden, klokken 02:00 UTC
Varsel gyldig fra 25. klokken 03 UTC til 25. klokken 12 UTC
Vind 8 kt fra Nord-nordvest
Sikt 10 km eller mer
ingen skyer under 1500 m og ingen bygeskyer

TAF: ENSH 250200Z 2503/2512 34008KT CAVOK

Værobservasjoner og værvarsel for over 4000 flyplasser (METAR- og TAF-rapporter).

Tilgjengelige stasjoner er representert av de røde og gule prikkene på kartet.

Hold musepekeren over prikken for å se navnet på stasjonen.

Klikk så for å se værobservasjoner og -varsler.

For å forandre kartet kan du klikke på den grønne knappen med svart kryss for å zoome inn, på den grønne knappen med strek for å zoome ut, eller på de grønne pilene for å se tilstøtende kart.


METAR-TAF: